sensor_id;sensor_type;location;lat;lon;timestamp;P1;durP1;ratioP1;P2;durP2;ratioP2
25263;SDS011;13211;51.796;5.808;2024-03-08T00:00:49;45.45;;;26.23;;
25263;SDS011;13211;51.796;5.808;2024-03-08T00:03:17;48.22;;;25.40;;
25263;SDS011;13211;51.796;5.808;2024-03-08T00:05:45;46.27;;;25.40;;
25263;SDS011;13211;51.796;5.808;2024-03-08T00:08:14;44.50;;;25.58;;
25263;SDS011;13211;51.796;5.808;2024-03-08T00:10:46;45.10;;;25.30;;
25263;SDS011;13211;51.796;5.808;2024-03-08T00:13:14;48.35;;;25.58;;
25263;SDS011;13211;51.796;5.808;2024-03-08T00:15:42;43.00;;;24.52;;
25263;SDS011;13211;51.796;5.808;2024-03-08T00:18:10;43.13;;;24.65;;
25263;SDS011;13211;51.796;5.808;2024-03-08T00:20:38;44.00;;;24.23;;
25263;SDS011;13211;51.796;5.808;2024-03-08T00:23:06;46.73;;;24.60;;
25263;SDS011;13211;51.796;5.808;2024-03-08T00:25:33;46.38;;;25.40;;
25263;SDS011;13211;51.796;5.808;2024-03-08T00:28:02;44.33;;;24.50;;
25263;SDS011;13211;51.796;5.808;2024-03-08T00:30:31;41.77;;;24.50;;
25263;SDS011;13211;51.796;5.808;2024-03-08T00:32:59;43.97;;;24.57;;
25263;SDS011;13211;51.796;5.808;2024-03-08T00:35:26;41.03;;;24.48;;
25263;SDS011;13211;51.796;5.808;2024-03-08T00:37:54;45.75;;;25.08;;
25263;SDS011;13211;51.796;5.808;2024-03-08T00:40:23;39.40;;;23.92;;
25263;SDS011;13211;51.796;5.808;2024-03-08T00:42:51;44.13;;;24.80;;
25263;SDS011;13211;51.796;5.808;2024-03-08T00:45:20;38.40;;;24.00;;
25263;SDS011;13211;51.796;5.808;2024-03-08T00:47:50;43.17;;;24.85;;
25263;SDS011;13211;51.796;5.808;2024-03-08T00:50:18;42.08;;;23.83;;
25263;SDS011;13211;51.796;5.808;2024-03-08T00:52:52;42.60;;;24.95;;
25263;SDS011;13211;51.796;5.808;2024-03-08T00:55:21;44.33;;;24.23;;
25263;SDS011;13211;51.796;5.808;2024-03-08T00:57:50;40.08;;;24.63;;
25263;SDS011;13211;51.796;5.808;2024-03-08T01:00:18;40.72;;;23.77;;
25263;SDS011;13211;51.796;5.808;2024-03-08T01:02:47;41.97;;;24.23;;
25263;SDS011;13211;51.796;5.808;2024-03-08T01:05:15;40.30;;;24.13;;
25263;SDS011;13211;51.796;5.808;2024-03-08T01:07:43;40.92;;;23.83;;
25263;SDS011;13211;51.796;5.808;2024-03-08T01:10:13;41.88;;;23.70;;
25263;SDS011;13211;51.796;5.808;2024-03-08T01:12:40;39.88;;;24.00;;
25263;SDS011;13211;51.796;5.808;2024-03-08T01:15:09;42.05;;;24.65;;
25263;SDS011;13211;51.796;5.808;2024-03-08T01:17:37;42.17;;;24.52;;
25263;SDS011;13211;51.796;5.808;2024-03-08T01:20:06;40.17;;;24.30;;
25263;SDS011;13211;51.796;5.808;2024-03-08T01:22:37;45.50;;;25.70;;
25263;SDS011;13211;51.796;5.808;2024-03-08T01:25:05;41.30;;;25.50;;
25263;SDS011;13211;51.796;5.808;2024-03-08T01:27:33;42.85;;;24.80;;
25263;SDS011;13211;51.796;5.808;2024-03-08T01:30:02;41.88;;;24.70;;
25263;SDS011;13211;51.796;5.808;2024-03-08T01:32:30;39.30;;;24.05;;
25263;SDS011;13211;51.796;5.808;2024-03-08T01:34:58;41.60;;;24.45;;
25263;SDS011;13211;51.796;5.808;2024-03-08T01:37:26;42.33;;;24.60;;
25263;SDS011;13211;51.796;5.808;2024-03-08T01:39:56;38.63;;;24.52;;
25263;SDS011;13211;51.796;5.808;2024-03-08T01:42:23;40.22;;;24.38;;
25263;SDS011;13211;51.796;5.808;2024-03-08T01:44:51;43.55;;;24.95;;
25263;SDS011;13211;51.796;5.808;2024-03-08T01:47:19;40.20;;;24.60;;
25263;SDS011;13211;51.796;5.808;2024-03-08T01:49:49;38.13;;;24.05;;
25263;SDS011;13211;51.796;5.808;2024-03-08T01:52:18;39.83;;;25.25;;
25263;SDS011;13211;51.796;5.808;2024-03-08T01:54:47;37.83;;;24.40;;
25263;SDS011;13211;51.796;5.808;2024-03-08T01:57:15;38.05;;;23.83;;
25263;SDS011;13211;51.796;5.808;2024-03-08T01:59:43;40.97;;;24.85;;
25263;SDS011;13211;51.796;5.808;2024-03-08T02:02:11;42.53;;;24.63;;
25263;SDS011;13211;51.796;5.808;2024-03-08T02:04:40;38.38;;;24.92;;
25263;SDS011;13211;51.796;5.808;2024-03-08T02:07:08;38.53;;;24.15;;
25263;SDS011;13211;51.796;5.808;2024-03-08T02:09:37;41.33;;;24.75;;
25263;SDS011;13211;51.796;5.808;2024-03-08T02:12:05;39.63;;;25.92;;
25263;SDS011;13211;51.796;5.808;2024-03-08T02:14:36;41.13;;;25.83;;
25263;SDS011;13211;51.796;5.808;2024-03-08T02:17:07;38.05;;;24.67;;
25263;SDS011;13211;51.796;5.808;2024-03-08T02:19:34;38.15;;;25.65;;
25263;SDS011;13211;51.796;5.808;2024-03-08T02:22:03;44.63;;;25.90;;
25263;SDS011;13211;51.796;5.808;2024-03-08T02:24:32;43.67;;;25.73;;
25263;SDS011;13211;51.796;5.808;2024-03-08T02:27:00;41.10;;;25.05;;
25263;SDS011;13211;51.796;5.808;2024-03-08T02:29:28;43.42;;;25.73;;
25263;SDS011;13211;51.796;5.808;2024-03-08T02:31:57;40.85;;;26.02;;
25263;SDS011;13211;51.796;5.808;2024-03-08T02:34:25;41.10;;;25.77;;
25263;SDS011;13211;51.796;5.808;2024-03-08T02:36:53;42.58;;;26.30;;
25263;SDS011;13211;51.796;5.808;2024-03-08T02:39:23;42.13;;;25.92;;
25263;SDS011;13211;51.796;5.808;2024-03-08T02:41:50;40.55;;;26.45;;
25263;SDS011;13211;51.796;5.808;2024-03-08T02:44:19;41.78;;;26.85;;
25263;SDS011;13211;51.796;5.808;2024-03-08T02:46:48;40.15;;;26.25;;
25263;SDS011;13211;51.796;5.808;2024-03-08T02:49:17;43.90;;;27.58;;
25263;SDS011;13211;51.796;5.808;2024-03-08T02:51:44;43.50;;;27.17;;
25263;SDS011;13211;51.796;5.808;2024-03-08T02:54:12;43.85;;;27.05;;
25263;SDS011;13211;51.796;5.808;2024-03-08T02:56:40;42.13;;;26.25;;
25263;SDS011;13211;51.796;5.808;2024-03-08T02:59:08;44.40;;;27.95;;
25263;SDS011;13211;51.796;5.808;2024-03-08T03:01:35;42.53;;;27.13;;
25263;SDS011;13211;51.796;5.808;2024-03-08T03:04:06;44.70;;;27.27;;
25263;SDS011;13211;51.796;5.808;2024-03-08T03:06:34;44.92;;;27.95;;
25263;SDS011;13211;51.796;5.808;2024-03-08T03:09:03;41.63;;;28.23;;
25263;SDS011;13211;51.796;5.808;2024-03-08T03:11:37;42.83;;;27.80;;
25263;SDS011;13211;51.796;5.808;2024-03-08T03:14:04;44.97;;;28.73;;
25263;SDS011;13211;51.796;5.808;2024-03-08T03:16:35;44.20;;;27.92;;
25263;SDS011;13211;51.796;5.808;2024-03-08T03:19:03;46.67;;;28.88;;
25263;SDS011;13211;51.796;5.808;2024-03-08T03:21:32;43.63;;;28.13;;
25263;SDS011;13211;51.796;5.808;2024-03-08T03:24:07;44.42;;;29.05;;
25263;SDS011;13211;51.796;5.808;2024-03-08T03:26:37;43.43;;;28.17;;
25263;SDS011;13211;51.796;5.808;2024-03-08T03:29:09;46.30;;;29.73;;
25263;SDS011;13211;51.796;5.808;2024-03-08T03:31:39;45.67;;;28.67;;
25263;SDS011;13211;51.796;5.808;2024-03-08T03:34:07;44.20;;;29.00;;
25263;SDS011;13211;51.796;5.808;2024-03-08T03:36:35;42.58;;;28.77;;
25263;SDS011;13211;51.796;5.808;2024-03-08T03:39:05;45.58;;;29.30;;
25263;SDS011;13211;51.796;5.808;2024-03-08T03:41:37;48.20;;;29.52;;
25263;SDS011;13211;51.796;5.808;2024-03-08T03:44:05;45.63;;;29.15;;
25263;SDS011;13211;51.796;5.808;2024-03-08T03:46:36;46.03;;;29.30;;
25263;SDS011;13211;51.796;5.808;2024-03-08T03:49:08;43.60;;;28.67;;
25263;SDS011;13211;51.796;5.808;2024-03-08T03:51:35;44.35;;;29.75;;
25263;SDS011;13211;51.796;5.808;2024-03-08T03:54:04;47.95;;;30.00;;
25263;SDS011;13211;51.796;5.808;2024-03-08T03:56:32;48.20;;;29.77;;
25263;SDS011;13211;51.796;5.808;2024-03-08T03:59:00;44.17;;;29.08;;
25263;SDS011;13211;51.796;5.808;2024-03-08T04:01:29;42.95;;;29.05;;
25263;SDS011;13211;51.796;5.808;2024-03-08T04:04:00;45.83;;;29.37;;
25263;SDS011;13211;51.796;5.808;2024-03-08T04:06:28;44.88;;;29.63;;
25263;SDS011;13211;51.796;5.808;2024-03-08T04:08:56;50.75;;;31.75;;
25263;SDS011;13211;51.796;5.808;2024-03-08T04:11:25;46.43;;;30.77;;
25263;SDS011;13211;51.796;5.808;2024-03-08T04:13:54;47.03;;;30.38;;
25263;SDS011;13211;51.796;5.808;2024-03-08T04:16:22;49.33;;;31.25;;
25263;SDS011;13211;51.796;5.808;2024-03-08T04:18:52;50.00;;;30.70;;
25263;SDS011;13211;51.796;5.808;2024-03-08T04:21:27;51.22;;;30.88;;
25263;SDS011;13211;51.796;5.808;2024-03-08T04:23:57;50.67;;;31.10;;
25263;SDS011;13211;51.796;5.808;2024-03-08T04:26:27;51.38;;;32.03;;
25263;SDS011;13211;51.796;5.808;2024-03-08T04:28:57;48.45;;;30.90;;
25263;SDS011;13211;51.796;5.808;2024-03-08T04:31:26;49.72;;;30.67;;
25263;SDS011;13211;51.796;5.808;2024-03-08T04:33:54;49.20;;;31.50;;
25263;SDS011;13211;51.796;5.808;2024-03-08T04:36:29;55.05;;;28.60;;
25263;SDS011;13211;51.796;5.808;2024-03-08T04:38:57;49.03;;;25.33;;
25263;SDS011;13211;51.796;5.808;2024-03-08T04:41:26;50.53;;;25.65;;
25263;SDS011;13211;51.796;5.808;2024-03-08T04:43:55;55.60;;;32.90;;
25263;SDS011;13211;51.796;5.808;2024-03-08T04:46:24;55.95;;;33.72;;
25263;SDS011;13211;51.796;5.808;2024-03-08T04:48:52;54.25;;;33.30;;
25263;SDS011;13211;51.796;5.808;2024-03-08T04:51:20;51.35;;;32.40;;
25263;SDS011;13211;51.796;5.808;2024-03-08T04:53:48;52.35;;;33.20;;
25263;SDS011;13211;51.796;5.808;2024-03-08T04:56:16;50.50;;;32.93;;
25263;SDS011;13211;51.796;5.808;2024-03-08T04:58:46;51.25;;;32.40;;
25263;SDS011;13211;51.796;5.808;2024-03-08T05:01:14;50.88;;;32.80;;
25263;SDS011;13211;51.796;5.808;2024-03-08T05:03:44;55.67;;;33.83;;
25263;SDS011;13211;51.796;5.808;2024-03-08T05:06:14;50.83;;;32.85;;
25263;SDS011;13211;51.796;5.808;2024-03-08T05:08:42;50.88;;;32.72;;
25263;SDS011;13211;51.796;5.808;2024-03-08T05:11:12;51.58;;;32.90;;
25263;SDS011;13211;51.796;5.808;2024-03-08T05:13:41;54.55;;;32.55;;
25263;SDS011;13211;51.796;5.808;2024-03-08T05:16:11;50.60;;;32.95;;
25263;SDS011;13211;51.796;5.808;2024-03-08T05:19:03;52.28;;;32.53;;
25263;SDS011;13211;51.796;5.808;2024-03-08T05:21:30;54.00;;;33.17;;
25263;SDS011;13211;51.796;5.808;2024-03-08T05:23:58;53.88;;;33.67;;
25263;SDS011;13211;51.796;5.808;2024-03-08T05:26:26;53.08;;;33.78;;
25263;SDS011;13211;51.796;5.808;2024-03-08T05:28:54;53.30;;;33.65;;
25263;SDS011;13211;51.796;5.808;2024-03-08T05:31:27;52.73;;;34.03;;
25263;SDS011;13211;51.796;5.808;2024-03-08T05:33:55;53.40;;;33.37;;
25263;SDS011;13211;51.796;5.808;2024-03-08T05:36:23;52.63;;;34.08;;
25263;SDS011;13211;51.796;5.808;2024-03-08T05:38:54;51.73;;;33.07;;
25263;SDS011;13211;51.796;5.808;2024-03-08T05:41:22;52.20;;;33.72;;
25263;SDS011;13211;51.796;5.808;2024-03-08T05:43:55;52.67;;;33.67;;
25263;SDS011;13211;51.796;5.808;2024-03-08T05:46:23;50.78;;;33.15;;
25263;SDS011;13211;51.796;5.808;2024-03-08T05:48:52;55.40;;;34.42;;
25263;SDS011;13211;51.796;5.808;2024-03-08T05:51:31;54.92;;;34.30;;
25263;SDS011;13211;51.796;5.808;2024-03-08T05:54:05;55.45;;;33.38;;
25263;SDS011;13211;51.796;5.808;2024-03-08T05:56:33;54.28;;;34.45;;
25263;SDS011;13211;51.796;5.808;2024-03-08T05:59:06;58.85;;;35.05;;
25263;SDS011;13211;51.796;5.808;2024-03-08T06:01:34;56.85;;;34.70;;
25263;SDS011;13211;51.796;5.808;2024-03-08T06:04:09;57.20;;;35.90;;
25263;SDS011;13211;51.796;5.808;2024-03-08T06:06:41;55.13;;;34.45;;
25263;SDS011;13211;51.796;5.808;2024-03-08T06:09:21;59.22;;;36.08;;
25263;SDS011;13211;51.796;5.808;2024-03-08T06:11:56;59.73;;;35.30;;
25263;SDS011;13211;51.796;5.808;2024-03-08T06:14:28;59.53;;;35.83;;
25263;SDS011;13211;51.796;5.808;2024-03-08T06:17:24;54.95;;;34.63;;
25263;SDS011;13211;51.796;5.808;2024-03-08T06:19:52;59.77;;;35.57;;
25263;SDS011;13211;51.796;5.808;2024-03-08T06:22:28;54.88;;;34.45;;
25263;SDS011;13211;51.796;5.808;2024-03-08T06:24:57;55.65;;;34.97;;
25263;SDS011;13211;51.796;5.808;2024-03-08T06:27:31;57.25;;;35.53;;
25263;SDS011;13211;51.796;5.808;2024-03-08T06:30:00;56.90;;;34.67;;
25263;SDS011;13211;51.796;5.808;2024-03-08T06:32:29;58.45;;;35.13;;
25263;SDS011;13211;51.796;5.808;2024-03-08T06:34:57;55.70;;;35.22;;
25263;SDS011;13211;51.796;5.808;2024-03-08T06:37:24;58.75;;;36.08;;
25263;SDS011;13211;51.796;5.808;2024-03-08T06:39:52;53.53;;;34.08;;
25263;SDS011;13211;51.796;5.808;2024-03-08T06:42:22;57.00;;;34.80;;
25263;SDS011;13211;51.796;5.808;2024-03-08T06:44:50;56.35;;;34.80;;
25263;SDS011;13211;51.796;5.808;2024-03-08T06:47:17;60.28;;;35.45;;
25263;SDS011;13211;51.796;5.808;2024-03-08T06:49:45;56.60;;;34.95;;
25263;SDS011;13211;51.796;5.808;2024-03-08T06:52:12;61.75;;;35.88;;
25263;SDS011;13211;51.796;5.808;2024-03-08T06:54:46;56.45;;;34.92;;
25263;SDS011;13211;51.796;5.808;2024-03-08T06:57:15;56.78;;;34.80;;
25263;SDS011;13211;51.796;5.808;2024-03-08T06:59:49;60.00;;;35.33;;
25263;SDS011;13211;51.796;5.808;2024-03-08T07:02:19;58.42;;;34.95;;
25263;SDS011;13211;51.796;5.808;2024-03-08T07:04:54;57.88;;;35.40;;
25263;SDS011;13211;51.796;5.808;2024-03-08T07:07:24;57.55;;;35.10;;
25263;SDS011;13211;51.796;5.808;2024-03-08T07:09:53;59.78;;;35.40;;
25263;SDS011;13211;51.796;5.808;2024-03-08T07:12:23;56.42;;;35.28;;
25263;SDS011;13211;51.796;5.808;2024-03-08T07:14:51;56.85;;;34.50;;
25263;SDS011;13211;51.796;5.808;2024-03-08T07:17:20;58.03;;;35.00;;
25263;SDS011;13211;51.796;5.808;2024-03-08T07:19:49;54.78;;;34.80;;
25263;SDS011;13211;51.796;5.808;2024-03-08T07:22:17;57.67;;;34.33;;
25263;SDS011;13211;51.796;5.808;2024-03-08T07:24:46;56.78;;;34.53;;
25263;SDS011;13211;51.796;5.808;2024-03-08T07:27:19;55.67;;;34.58;;
25263;SDS011;13211;51.796;5.808;2024-03-08T07:29:48;59.47;;;35.47;;
25263;SDS011;13211;51.796;5.808;2024-03-08T07:32:15;58.25;;;35.83;;
25263;SDS011;13211;51.796;5.808;2024-03-08T07:34:51;57.87;;;35.83;;
25263;SDS011;13211;51.796;5.808;2024-03-08T07:37:24;59.00;;;34.88;;
25263;SDS011;13211;51.796;5.808;2024-03-08T07:39:52;56.83;;;34.90;;
25263;SDS011;13211;51.796;5.808;2024-03-08T07:42:21;55.78;;;35.20;;
25263;SDS011;13211;51.796;5.808;2024-03-08T07:44:52;56.53;;;35.35;;
25263;SDS011;13211;51.796;5.808;2024-03-08T07:50:05;58.58;;;35.53;;
25263;SDS011;13211;51.796;5.808;2024-03-08T07:52:35;56.10;;;35.17;;
25263;SDS011;13211;51.796;5.808;2024-03-08T07:55:03;55.53;;;35.05;;
25263;SDS011;13211;51.796;5.808;2024-03-08T07:57:32;61.70;;;35.30;;
25263;SDS011;13211;51.796;5.808;2024-03-08T08:00:02;55.17;;;34.30;;
25263;SDS011;13211;51.796;5.808;2024-03-08T08:02:34;56.10;;;34.38;;
25263;SDS011;13211;51.796;5.808;2024-03-08T08:05:06;56.70;;;34.33;;
25263;SDS011;13211;51.796;5.808;2024-03-08T08:07:36;54.10;;;33.80;;
25263;SDS011;13211;51.796;5.808;2024-03-08T08:10:05;58.97;;;35.13;;
25263;SDS011;13211;51.796;5.808;2024-03-08T08:12:33;54.95;;;33.38;;
25263;SDS011;13211;51.796;5.808;2024-03-08T08:15:13;53.00;;;33.28;;
25263;SDS011;13211;51.796;5.808;2024-03-08T08:17:42;59.40;;;34.60;;
25263;SDS011;13211;51.796;5.808;2024-03-08T08:20:15;52.75;;;33.20;;
25263;SDS011;13211;51.796;5.808;2024-03-08T08:22:48;52.65;;;33.63;;
25263;SDS011;13211;51.796;5.808;2024-03-08T08:25:27;54.75;;;33.13;;
25263;SDS011;13211;51.796;5.808;2024-03-08T08:28:00;57.45;;;34.28;;
25263;SDS011;13211;51.796;5.808;2024-03-08T08:30:32;54.42;;;33.72;;
25263;SDS011;13211;51.796;5.808;2024-03-08T08:33:00;52.08;;;32.40;;
25263;SDS011;13211;51.796;5.808;2024-03-08T08:35:28;52.85;;;32.78;;
25263;SDS011;13211;51.796;5.808;2024-03-08T08:37:56;52.88;;;33.38;;
25263;SDS011;13211;51.796;5.808;2024-03-08T08:40:29;53.70;;;33.53;;
25263;SDS011;13211;51.796;5.808;2024-03-08T08:43:04;52.50;;;32.63;;
25263;SDS011;13211;51.796;5.808;2024-03-08T08:45:32;50.53;;;32.25;;
25263;SDS011;13211;51.796;5.808;2024-03-08T08:48:00;50.92;;;31.90;;
25263;SDS011;13211;51.796;5.808;2024-03-08T08:50:33;49.53;;;32.42;;
25263;SDS011;13211;51.796;5.808;2024-03-08T08:53:02;53.65;;;31.65;;
25263;SDS011;13211;51.796;5.808;2024-03-08T08:55:31;49.30;;;31.75;;
25263;SDS011;13211;51.796;5.808;2024-03-08T08:58:03;50.50;;;31.65;;
25263;SDS011;13211;51.796;5.808;2024-03-08T09:00:32;48.47;;;31.30;;
25263;SDS011;13211;51.796;5.808;2024-03-08T09:03:02;48.80;;;30.30;;
25263;SDS011;13211;51.796;5.808;2024-03-08T09:05:33;46.83;;;29.77;;
25263;SDS011;13211;51.796;5.808;2024-03-08T09:08:05;49.55;;;31.63;;
25263;SDS011;13211;51.796;5.808;2024-03-08T09:10:33;46.65;;;29.65;;
25263;SDS011;13211;51.796;5.808;2024-03-08T09:13:29;50.72;;;31.08;;
25263;SDS011;13211;51.796;5.808;2024-03-08T09:16:02;46.35;;;30.02;;
25263;SDS011;13211;51.796;5.808;2024-03-08T09:18:31;47.65;;;30.35;;
25263;SDS011;13211;51.796;5.808;2024-03-08T09:21:00;48.70;;;29.92;;
25263;SDS011;13211;51.796;5.808;2024-03-08T09:26:00;45.30;;;29.50;;
25263;SDS011;13211;51.796;5.808;2024-03-08T09:28:38;48.08;;;30.08;;
25263;SDS011;13211;51.796;5.808;2024-03-08T09:31:15;45.45;;;28.88;;
25263;SDS011;13211;51.796;5.808;2024-03-08T09:33:44;44.47;;;28.73;;
25263;SDS011;13211;51.796;5.808;2024-03-08T09:36:13;44.70;;;28.83;;
25263;SDS011;13211;51.796;5.808;2024-03-08T09:38:41;43.40;;;27.83;;
25263;SDS011;13211;51.796;5.808;2024-03-08T09:41:14;41.43;;;27.90;;
25263;SDS011;13211;51.796;5.808;2024-03-08T09:43:43;41.53;;;27.95;;
25263;SDS011;13211;51.796;5.808;2024-03-08T09:46:19;42.42;;;27.90;;
25263;SDS011;13211;51.796;5.808;2024-03-08T09:48:49;40.95;;;26.77;;
25263;SDS011;13211;51.796;5.808;2024-03-08T09:51:22;42.83;;;26.98;;
25263;SDS011;13211;51.796;5.808;2024-03-08T09:53:52;39.65;;;26.13;;
25263;SDS011;13211;51.796;5.808;2024-03-08T09:56:26;39.60;;;25.53;;
25263;SDS011;13211;51.796;5.808;2024-03-08T09:59:00;41.85;;;26.48;;
25263;SDS011;13211;51.796;5.808;2024-03-08T10:01:31;39.15;;;25.63;;
25263;SDS011;13211;51.796;5.808;2024-03-08T10:04:02;37.65;;;25.17;;
25263;SDS011;13211;51.796;5.808;2024-03-08T10:06:34;37.37;;;25.17;;
25263;SDS011;13211;51.796;5.808;2024-03-08T10:09:02;39.28;;;25.50;;
25263;SDS011;13211;51.796;5.808;2024-03-08T10:11:34;38.03;;;24.42;;
25263;SDS011;13211;51.796;5.808;2024-03-08T10:14:02;40.78;;;23.80;;
25263;SDS011;13211;51.796;5.808;2024-03-08T10:16:30;35.22;;;23.85;;
25263;SDS011;13211;51.796;5.808;2024-03-08T10:18:57;35.47;;;23.10;;
25263;SDS011;13211;51.796;5.808;2024-03-08T10:21:27;35.20;;;23.10;;
25263;SDS011;13211;51.796;5.808;2024-03-08T10:23:55;33.38;;;22.60;;
25263;SDS011;13211;51.796;5.808;2024-03-08T10:26:25;33.13;;;23.05;;
25263;SDS011;13211;51.796;5.808;2024-03-08T10:28:53;34.00;;;23.13;;
25263;SDS011;13211;51.796;5.808;2024-03-08T10:31:22;32.90;;;22.27;;
25263;SDS011;13211;51.796;5.808;2024-03-08T10:33:50;35.90;;;22.52;;
25263;SDS011;13211;51.796;5.808;2024-03-08T10:36:19;32.47;;;21.73;;
25263;SDS011;13211;51.796;5.808;2024-03-08T10:38:50;32.25;;;21.45;;
25263;SDS011;13211;51.796;5.808;2024-03-08T10:41:26;32.13;;;21.00;;
25263;SDS011;13211;51.796;5.808;2024-03-08T10:49:30;34.25;;;21.90;;
25263;SDS011;13211;51.796;5.808;2024-03-08T10:52:04;32.65;;;21.17;;
25263;SDS011;13211;51.796;5.808;2024-03-08T10:54:39;31.02;;;21.10;;
25263;SDS011;13211;51.796;5.808;2024-03-08T10:57:14;31.65;;;21.30;;
25263;SDS011;13211;51.796;5.808;2024-03-08T10:59:47;31.55;;;21.52;;
25263;SDS011;13211;51.796;5.808;2024-03-08T11:02:18;31.17;;;20.95;;
25263;SDS011;13211;51.796;5.808;2024-03-08T11:04:47;32.75;;;21.38;;
25263;SDS011;13211;51.796;5.808;2024-03-08T11:07:16;31.20;;;21.10;;
25263;SDS011;13211;51.796;5.808;2024-03-08T11:09:49;31.23;;;21.30;;
25263;SDS011;13211;51.796;5.808;2024-03-08T11:12:29;31.33;;;21.23;;
25263;SDS011;13211;51.796;5.808;2024-03-08T11:15:11;32.47;;;20.53;;
25263;SDS011;13211;51.796;5.808;2024-03-08T11:17:48;28.73;;;20.40;;
25263;SDS011;13211;51.796;5.808;2024-03-08T11:20:18;28.65;;;19.70;;
25263;SDS011;13211;51.796;5.808;2024-03-08T11:23:03;28.83;;;19.73;;
25263;SDS011;13211;51.796;5.808;2024-03-08T11:25:40;29.77;;;20.05;;
25263;SDS011;13211;51.796;5.808;2024-03-08T11:28:23;29.00;;;19.70;;
25263;SDS011;13211;51.796;5.808;2024-03-08T11:33:29;28.70;;;19.33;;
25263;SDS011;13211;51.796;5.808;2024-03-08T11:36:02;28.45;;;18.98;;
25263;SDS011;13211;51.796;5.808;2024-03-08T11:38:36;28.55;;;18.80;;
25263;SDS011;13211;51.796;5.808;2024-03-08T11:41:09;28.42;;;18.98;;
25263;SDS011;13211;51.796;5.808;2024-03-08T11:43:47;27.63;;;18.58;;
25263;SDS011;13211;51.796;5.808;2024-03-08T11:46:16;26.63;;;18.90;;
25263;SDS011;13211;51.796;5.808;2024-03-08T11:51:19;27.87;;;18.00;;
25263;SDS011;13211;51.796;5.808;2024-03-08T11:53:49;26.40;;;18.08;;
25263;SDS011;13211;51.796;5.808;2024-03-08T11:56:16;28.23;;;18.48;;
25263;SDS011;13211;51.796;5.808;2024-03-08T11:58:55;25.08;;;17.98;;
25263;SDS011;13211;51.796;5.808;2024-03-08T12:01:27;26.55;;;18.02;;
25263;SDS011;13211;51.796;5.808;2024-03-08T12:03:59;27.93;;;18.57;;
25263;SDS011;13211;51.796;5.808;2024-03-08T12:06:36;27.98;;;18.50;;
25263;SDS011;13211;51.796;5.808;2024-03-08T12:09:10;26.70;;;18.30;;
25263;SDS011;13211;51.796;5.808;2024-03-08T12:11:47;27.45;;;17.55;;
25263;SDS011;13211;51.796;5.808;2024-03-08T12:14:19;27.13;;;17.25;;
25263;SDS011;13211;51.796;5.808;2024-03-08T12:19:15;28.73;;;16.98;;
25263;SDS011;13211;51.796;5.808;2024-03-08T12:21:43;26.30;;;16.33;;
25263;SDS011;13211;51.796;5.808;2024-03-08T12:24:18;30.85;;;17.30;;
25263;SDS011;13211;51.796;5.808;2024-03-08T12:26:46;27.73;;;16.75;;
25263;SDS011;13211;51.796;5.808;2024-03-08T12:29:21;30.08;;;17.05;;
25263;SDS011;13211;51.796;5.808;2024-03-08T12:31:51;30.10;;;18.33;;
25263;SDS011;13211;51.796;5.808;2024-03-08T12:34:21;28.85;;;16.77;;
25263;SDS011;13211;51.796;5.808;2024-03-08T12:36:56;27.03;;;17.23;;
25263;SDS011;13211;51.796;5.808;2024-03-08T12:39:24;28.58;;;17.55;;
25263;SDS011;13211;51.796;5.808;2024-03-08T12:41:59;29.55;;;17.92;;
25263;SDS011;13211;51.796;5.808;2024-03-08T12:44:27;26.30;;;17.20;;
25263;SDS011;13211;51.796;5.808;2024-03-08T12:46:56;30.67;;;17.42;;
25263;SDS011;13211;51.796;5.808;2024-03-08T12:49:27;28.13;;;17.23;;
25263;SDS011;13211;51.796;5.808;2024-03-08T12:51:57;26.37;;;17.03;;
25263;SDS011;13211;51.796;5.808;2024-03-08T12:54:25;30.35;;;17.17;;
25263;SDS011;13211;51.796;5.808;2024-03-08T12:56:53;33.33;;;18.48;;
25263;SDS011;13211;51.796;5.808;2024-03-08T12:59:21;28.73;;;17.33;;
25263;SDS011;13211;51.796;5.808;2024-03-08T13:01:56;27.38;;;17.02;;
25263;SDS011;13211;51.796;5.808;2024-03-08T13:04:26;31.02;;;17.98;;
25263;SDS011;13211;51.796;5.808;2024-03-08T13:06:55;26.83;;;16.75;;
25263;SDS011;13211;51.796;5.808;2024-03-08T13:09:22;33.22;;;16.95;;
25263;SDS011;13211;51.796;5.808;2024-03-08T13:11:50;26.42;;;16.30;;
25263;SDS011;13211;51.796;5.808;2024-03-08T13:14:21;27.23;;;16.73;;
25263;SDS011;13211;51.796;5.808;2024-03-08T13:16:49;29.52;;;18.30;;
25263;SDS011;13211;51.796;5.808;2024-03-08T13:19:33;28.67;;;17.73;;
25263;SDS011;13211;51.796;5.808;2024-03-08T13:22:01;30.25;;;17.13;;
25263;SDS011;13211;51.796;5.808;2024-03-08T13:24:32;25.52;;;17.02;;
25263;SDS011;13211;51.796;5.808;2024-03-08T13:27:00;28.17;;;17.42;;
25263;SDS011;13211;51.796;5.808;2024-03-08T13:29:28;31.48;;;16.95;;
25263;SDS011;13211;51.796;5.808;2024-03-08T13:31:57;28.95;;;17.08;;
25263;SDS011;13211;51.796;5.808;2024-03-08T13:34:28;31.85;;;18.38;;
25263;SDS011;13211;51.796;5.808;2024-03-08T13:36:58;29.35;;;17.48;;
25263;SDS011;13211;51.796;5.808;2024-03-08T13:39:27;28.40;;;17.13;;
25263;SDS011;13211;51.796;5.808;2024-03-08T13:41:55;27.23;;;16.80;;
25263;SDS011;13211;51.796;5.808;2024-03-08T13:44:23;26.70;;;17.75;;
25263;SDS011;13211;51.796;5.808;2024-03-08T13:46:52;29.08;;;17.27;;
25263;SDS011;13211;51.796;5.808;2024-03-08T13:49:20;30.23;;;17.13;;
25263;SDS011;13211;51.796;5.808;2024-03-08T13:51:48;26.63;;;17.83;;
25263;SDS011;13211;51.796;5.808;2024-03-08T13:54:16;31.10;;;17.05;;
25263;SDS011;13211;51.796;5.808;2024-03-08T13:56:44;26.42;;;17.10;;
25263;SDS011;13211;51.796;5.808;2024-03-08T13:59:13;26.88;;;17.52;;
25263;SDS011;13211;51.796;5.808;2024-03-08T14:01:40;26.20;;;16.45;;
25263;SDS011;13211;51.796;5.808;2024-03-08T14:04:12;27.83;;;17.05;;
25263;SDS011;13211;51.796;5.808;2024-03-08T14:06:43;28.85;;;18.00;;
25263;SDS011;13211;51.796;5.808;2024-03-08T14:11:43;31.35;;;18.35;;
25263;SDS011;13211;51.796;5.808;2024-03-08T14:14:11;32.78;;;19.25;;
25263;SDS011;13211;51.796;5.808;2024-03-08T14:16:40;30.05;;;18.60;;
25263;SDS011;13211;51.796;5.808;2024-03-08T14:19:19;26.73;;;17.63;;
25263;SDS011;13211;51.796;5.808;2024-03-08T14:21:47;29.05;;;17.98;;
25263;SDS011;13211;51.796;5.808;2024-03-08T14:24:16;34.50;;;18.83;;
25263;SDS011;13211;51.796;5.808;2024-03-08T14:29:16;29.73;;;18.20;;
25263;SDS011;13211;51.796;5.808;2024-03-08T14:31:45;29.60;;;18.10;;
25263;SDS011;13211;51.796;5.808;2024-03-08T14:34:17;28.58;;;18.05;;
25263;SDS011;13211;51.796;5.808;2024-03-08T14:36:47;29.23;;;19.20;;
25263;SDS011;13211;51.796;5.808;2024-03-08T14:39:19;30.88;;;20.58;;
25263;SDS011;13211;51.796;5.808;2024-03-08T14:44:24;29.27;;;19.77;;
25263;SDS011;13211;51.796;5.808;2024-03-08T14:46:54;28.40;;;19.40;;
25263;SDS011;13211;51.796;5.808;2024-03-08T14:49:31;26.40;;;19.70;;
25263;SDS011;13211;51.796;5.808;2024-03-08T14:52:01;29.75;;;19.60;;
25263;SDS011;13211;51.796;5.808;2024-03-08T14:54:34;26.17;;;19.10;;
25263;SDS011;13211;51.796;5.808;2024-03-08T14:57:06;27.83;;;19.55;;
25263;SDS011;13211;51.796;5.808;2024-03-08T14:59:42;27.55;;;18.45;;
25263;SDS011;13211;51.796;5.808;2024-03-08T15:02:12;26.83;;;19.33;;
25263;SDS011;13211;51.796;5.808;2024-03-08T15:04:48;25.92;;;18.90;;